Time;durP1;ratioP1;P1;durP2;ratioP2;P2;SDS_P1;SDS_P2;PMS_P1;PMS_P2;Temp;Humidity;BMP_temperature;BMP_pressure;BME280_temperature;BME280_humidity;BME280_pressure;Samples;Min_cycle;Max_cycle;Signal;HPM_P1;HPM_P2
2023/10/01 00:01:30;;;;;;;12.50;5.57;;;23.90;63.40;;;;;;7678768;22;80318;-62
2023/10/01 00:04:31;;;;;;;12.18;4.35;;;23.90;63.30;;;;;;7651869;22;82047;-49
2023/10/01 00:07:36;;;;;;;9.18;4.22;;;23.90;63.20;;;;;;7678732;22;80824;-54
2023/10/01 00:10:41;;;;;;;7.03;3.83;;;23.90;63.20;;;;;;7679114;22;80556;-50
2023/10/01 00:13:41;;;;;;;10.55;4.70;;;23.80;63.00;;;;;;7678788;22;80445;-51
2023/10/01 00:16:42;;;;;;;8.13;4.60;;;23.90;63.10;;;;;;7680178;22;80154;-47
2023/10/01 00:19:45;;;;;;;9.27;4.63;;;23.90;63.20;;;;;;7677688;22;81271;-52
2023/10/01 00:22:45;;;;;;;9.82;5.35;;;23.90;63.20;;;;;;7676636;22;80506;-52
2023/10/01 00:25:46;;;;;;;15.85;4.70;;;23.80;63.10;;;;;;7674294;22;81457;-57
2023/10/01 00:28:46;;;;;;;11.65;4.88;;;23.90;62.90;;;;;;7649436;22;82835;-57
2023/10/01 00:31:47;;;;;;;11.77;4.55;;;23.80;62.80;;;;;;7675204;22;80287;-58
2023/10/01 00:34:47;;;;;;;10.05;4.95;;;23.80;62.80;;;;;;7676422;22;80497;-57
2023/10/01 00:37:48;;;;;;;10.13;4.40;;;23.80;62.70;;;;;;7675543;22;81021;-58
2023/10/01 00:40:50;;;;;;;10.32;4.43;;;23.80;62.80;;;;;;7679484;22;80419;-58
2023/10/01 00:43:50;;;;;;;11.30;4.32;;;23.80;62.90;;;;;;7651466;22;83017;-62
2023/10/01 00:46:51;;;;;;;11.27;4.30;;;23.80;62.60;;;;;;7679574;22;80017;-62
2023/10/01 00:49:51;;;;;;;11.63;4.30;;;23.80;62.60;;;;;;7677364;22;80433;-62
2023/10/01 00:52:52;;;;;;;9.38;4.70;;;23.80;62.50;;;;;;7678372;22;80458;-62
2023/10/01 00:55:53;;;;;;;11.23;4.88;;;23.80;62.50;;;;;;7650735;22;80710;-62
2023/10/01 00:58:54;;;;;;;7.68;3.88;;;23.80;62.40;;;;;;7652381;22;83336;-63
2023/10/01 01:01:54;;;;;;;12.02;4.40;;;23.80;62.20;;;;;;7678950;22;80694;-63
2023/10/01 01:05:19;;;;;;;11.45;5.50;;;23.80;62.20;;;;;;7673690;22;81152;-59
2023/10/01 01:08:28;;;;;;;10.57;4.60;;;23.80;62.10;;;;;;7677310;22;84858;-59
2023/10/01 01:11:29;;;;;;;9.25;4.13;;;23.80;62.10;;;;;;7652026;22;81483;-58
2023/10/01 01:14:30;;;;;;;11.55;4.50;;;23.70;62.00;;;;;;7678222;22;80911;-59
2023/10/01 01:17:31;;;;;;;8.60;4.38;;;23.70;62.20;;;;;;7678859;22;80518;-59
2023/10/01 01:20:36;;;;;;;9.18;4.03;;;23.70;62.10;;;;;;7654405;22;80946;-59
2023/10/01 01:23:37;;;;;;;9.68;4.38;;;23.70;62.10;;;;;;7677358;22;81725;-62
2023/10/01 01:26:37;;;;;;;9.30;4.68;;;23.70;62.00;;;;;;7678857;22;80866;-62
2023/10/01 01:29:44;;;;;;;10.50;4.53;;;23.70;62.00;;;;;;7680565;22;81521;-60
2023/10/01 01:32:47;;;;;;;11.45;5.43;;;23.70;61.90;;;;;;7680338;22;80286;-60
2023/10/01 01:35:49;;;;;;;9.63;4.30;;;23.70;61.90;;;;;;7678347;22;81538;-60
2023/10/01 01:38:50;;;;;;;8.55;4.03;;;23.70;61.90;;;;;;7678134;22;81513;-59
2023/10/01 01:41:51;;;;;;;10.20;4.07;;;23.70;62.00;;;;;;7680147;22;80288;-61
2023/10/01 01:45:15;;;;;;;10.25;4.07;;;23.70;61.80;;;;;;7678941;22;83105;-60
2023/10/01 01:48:21;;;;;;;9.48;4.00;;;23.70;62.00;;;;;;7681064;22;80732;-60
2023/10/01 01:51:24;;;;;;;10.50;4.47;;;23.70;61.70;;;;;;7680284;22;80275;-61
2023/10/01 01:54:24;;;;;;;9.23;4.75;;;23.70;61.60;;;;;;7680296;22;80753;-61
2023/10/01 01:57:28;;;;;;;9.07;3.90;;;23.70;61.70;;;;;;7679744;22;82044;-60
2023/10/01 02:00:31;;;;;;;8.07;4.10;;;23.70;61.60;;;;;;7679283;22;83522;-58
2023/10/01 02:03:35;;;;;;;11.73;4.18;;;23.70;61.50;;;;;;7679483;22;80450;-59
2023/10/01 02:06:36;;;;;;;11.18;5.15;;;23.70;61.30;;;;;;7678810;22;83555;-59
2023/10/01 02:09:37;;;;;;;12.35;4.88;;;23.70;61.40;;;;;;7679717;22;80237;-58
2023/10/01 02:12:38;;;;;;;11.43;3.53;;;23.60;61.20;;;;;;7680584;22;80919;-59
2023/10/01 02:15:38;;;;;;;8.88;4.00;;;23.70;61.20;;;;;;7678986;22;80287;-61
2023/10/01 02:18:41;;;;;;;7.10;3.45;;;23.70;61.30;;;;;;7680201;22;80401;-61
2023/10/01 02:21:49;;;;;;;12.57;4.40;;;23.60;61.10;;;;;;7678705;22;80735;-61
2023/10/01 02:24:56;;;;;;;8.38;3.97;;;23.60;60.90;;;;;;7678945;22;80843;-62
2023/10/01 02:28:12;;;;;;;8.52;4.35;;;23.60;61.10;;;;;;7676200;22;80880;-63
2023/10/01 02:31:13;;;;;;;9.63;3.97;;;23.60;60.80;;;;;;7676327;22;80933;-62
2023/10/01 02:34:14;;;;;;;10.40;4.05;;;23.60;60.80;;;;;;7649032;22;83687;-51
2023/10/01 02:37:25;;;;;;;9.48;3.55;;;23.60;60.70;;;;;;7676294;22;80655;-51
2023/10/01 02:40:34;;;;;;;8.68;4.00;;;23.60;60.80;;;;;;7649599;22;81940;-50
2023/10/01 02:43:35;;;;;;;9.32;4.40;;;23.60;60.80;;;;;;7679865;22;81770;-51
2023/10/01 02:46:37;;;;;;;8.75;4.53;;;23.60;60.90;;;;;;7679569;22;80072;-49
2023/10/01 02:49:47;;;;;;;9.27;4.30;;;23.60;60.80;;;;;;7651024;22;81324;-47
2023/10/01 02:52:53;;;;;;;8.98;3.78;;;23.60;60.80;;;;;;7651392;22;83434;-54
2023/10/01 02:55:56;;;;;;;6.45;3.42;;;23.60;60.80;;;;;;7679323;22;87498;-48
2023/10/01 02:58:57;;;;;;;10.85;4.22;;;23.60;60.70;;;;;;7680437;22;80831;-52
2023/10/01 03:01:57;;;;;;;8.48;3.67;;;23.60;60.60;;;;;;7652611;22;83546;-52
2023/10/01 03:04:59;;;;;;;8.93;3.78;;;23.60;60.80;;;;;;7679534;22;81604;-53
2023/10/01 03:08:40;;;;;;;8.13;3.63;;;23.60;60.80;;;;;;7652763;22;81619;-52
2023/10/01 03:11:26;;;;;;;5.55;3.45;;;23.60;60.60;;;;;;7652030;22;86217;-50
2023/10/01 03:14:27;;;;;;;10.45;3.92;;;23.60;60.60;;;;;;7679255;22;80207;-50
2023/10/01 03:17:33;;;;;;;8.50;3.83;;;23.60;60.60;;;;;;7677900;22;80733;-53
2023/10/01 03:23:42;;;;;;;9.48;3.83;;;23.60;60.80;;;;;;7677599;22;80552;-53
2023/10/01 03:26:45;;;;;;;7.95;4.00;;;23.60;60.90;;;;;;7649462;22;80121;-48
2023/10/01 03:29:48;;;;;;;7.25;3.78;;;23.60;60.60;;;;;;7676733;22;80329;-52
2023/10/01 03:32:49;;;;;;;8.68;3.10;;;23.60;60.60;;;;;;7676366;22;87266;-53
2023/10/01 03:35:49;;;;;;;7.70;3.80;;;23.60;60.40;;;;;;7676146;22;80240;-52
2023/10/01 03:38:50;;;;;;;5.50;3.13;;;23.60;60.60;;;;;;7676464;22;80293;-53
2023/10/01 03:41:53;;;;;;;7.97;3.78;;;23.60;60.40;;;;;;7676714;22;80767;-52
2023/10/01 03:48:00;;;;;;;8.98;3.45;;;23.60;60.40;;;;;;7677069;22;80315;-59
2023/10/01 03:51:01;;;;;;;9.27;3.40;;;23.60;60.30;;;;;;7675397;22;80388;-60
2023/10/01 03:54:06;;;;;;;7.00;3.35;;;23.50;60.20;;;;;;7676524;22;80469;-60
2023/10/01 03:57:11;;;;;;;8.57;3.00;;;23.50;60.30;;;;;;7675341;22;80449;-58
2023/10/01 04:00:29;;;;;;;7.67;3.30;;;23.50;60.00;;;;;;7675947;22;80751;-58
2023/10/01 04:03:38;;;;;;;7.47;3.40;;;23.50;60.10;;;;;;7676618;22;80499;-59
2023/10/01 04:06:39;;;;;;;6.85;2.80;;;23.50;60.30;;;;;;7676236;22;86370;-62
2023/10/01 04:09:51;;;;;;;6.80;3.53;;;23.50;60.80;;;;;;7676761;22;80265;-61
2023/10/01 04:12:58;;;;;;;7.55;3.42;;;23.50;60.70;;;;;;7676905;22;80483;-60
2023/10/01 04:16:07;;;;;;;8.20;3.90;;;23.50;60.70;;;;;;7676247;22;80739;-61
2023/10/01 04:19:11;;;;;;;8.25;3.33;;;23.50;60.30;;;;;;7677884;22;81414;-60
2023/10/01 04:22:12;;;;;;;8.93;3.67;;;23.50;60.20;;;;;;7627754;22;1195399;-62
2023/10/01 04:25:14;;;;;;;6.40;3.03;;;23.50;60.40;;;;;;7679735;22;80723;-58
2023/10/01 04:28:14;;;;;;;9.70;3.58;;;23.50;60.40;;;;;;7680404;22;81836;-58
2023/10/01 04:31:15;;;;;;;6.00;2.60;;;23.50;60.30;;;;;;7679629;22;80316;-58
2023/10/01 04:34:17;;;;;;;9.20;3.17;;;23.50;60.20;;;;;;7678934;22;80664;-58
2023/10/01 04:37:36;;;;;;;9.57;3.53;;;23.50;60.30;;;;;;7673787;22;80782;-58
2023/10/01 04:40:40;;;;;;;7.85;3.17;;;23.50;60.10;;;;;;7631072;22;81850;-60
2023/10/01 04:43:51;;;;;;;6.78;3.20;;;23.50;60.20;;;;;;7671268;22;80760;-60
2023/10/01 04:46:55;;;;;;;5.13;2.92;;;23.50;60.00;;;;;;7668177;22;81173;-59
2023/10/01 04:49:56;;;;;;;8.65;3.60;;;23.50;60.10;;;;;;7648113;22;80346;-58
2023/10/01 04:52:59;;;;;;;5.93;3.10;;;23.50;59.90;;;;;;7678270;22;80400;-59
2023/10/01 04:56:05;;;;;;;5.97;3.22;;;23.50;60.00;;;;;;7678109;22;80312;-58
2023/10/01 04:59:07;;;;;;;6.50;3.30;;;23.50;59.90;;;;;;7649647;22;81616;-58
2023/10/01 05:02:21;;;;;;;5.28;2.80;;;23.50;60.10;;;;;;7679762;22;80680;-59
2023/10/01 05:05:28;;;;;;;10.02;4.07;;;23.50;60.10;;;;;;7679594;22;84668;-60
2023/10/01 05:08:38;;;;;;;7.00;3.47;;;23.50;60.00;;;;;;7676401;22;81230;-62
2023/10/01 05:11:39;;;;;;;7.47;3.25;;;23.50;60.20;;;;;;7678122;22;80937;-59
2023/10/01 05:14:59;;;;;;;6.70;3.63;;;23.50;60.30;;;;;;7676283;22;82133;-59
2023/10/01 05:18:01;;;;;;;5.80;2.88;;;23.50;60.60;;;;;;7676366;22;80377;-48
2023/10/01 05:21:04;;;;;;;12.07;3.78;;;23.50;60.60;;;;;;7676555;22;80328;-51
2023/10/01 05:24:05;;;;;;;8.40;3.22;;;23.50;60.60;;;;;;7679128;22;80895;-52
2023/10/01 05:27:09;;;;;;;7.05;2.70;;;23.50;60.70;;;;;;7677133;22;80363;-51
2023/10/01 05:30:34;;;;;;;9.48;3.67;;;23.60;61.00;;;;;;7676915;22;80408;-51
2023/10/01 05:33:32;;;;;;;7.55;3.53;;;23.60;61.20;;;;;;7675190;22;80900;-47
2023/10/01 05:36:35;;;;;;;5.43;3.10;;;23.60;61.60;;;;;;7676818;22;81253;-56
2023/10/01 05:39:55;;;;;;;10.43;3.45;;;23.60;61.40;;;;;;7679621;22;80919;-48
2023/10/01 05:43:12;;;;;;;5.72;3.40;;;23.60;61.10;;;;;;7679010;22;80899;-49
2023/10/01 05:46:12;;;;;;;7.70;3.08;;;23.60;61.10;;;;;;7679983;22;81327;-48
2023/10/01 05:49:13;;;;;;;6.88;3.08;;;23.60;61.20;;;;;;7678758;22;81081;-51
2023/10/01 05:52:13;;;;;;;7.68;3.03;;;23.60;61.20;;;;;;7680114;22;80324;-52
2023/10/01 05:55:15;;;;;;;7.63;3.00;;;23.60;61.50;;;;;;7679590;22;80332;-52
2023/10/01 05:58:16;;;;;;;7.25;3.17;;;23.60;61.90;;;;;;7653403;22;83816;-53
2023/10/01 06:01:17;;;;;;;11.73;3.60;;;23.60;62.30;;;;;;7661276;22;80997;-55
2023/10/01 06:04:18;;;;;;;6.85;4.07;;;23.60;62.80;;;;;;7669800;22;80732;-48
2023/10/01 06:07:19;;;;;;;7.72;3.92;;;23.60;63.10;;;;;;7675791;22;80273;-53
2023/10/01 06:10:26;;;;;;;9.85;4.40;;;23.70;63.80;;;;;;7678312;22;80839;-54
2023/10/01 06:13:30;;;;;;;15.50;4.05;;;23.60;63.00;;;;;;7676838;22;80524;-52
2023/10/01 06:16:37;;;;;;;12.88;5.22;;;23.70;63.90;;;;;;7679706;22;80221;-69
2023/10/01 06:19:38;;;;;;;10.18;4.47;;;23.70;63.70;;;;;;7678814;22;80192;-65
2023/10/01 06:22:41;;;;;;;15.57;4.60;;;23.60;63.90;;;;;;7680138;22;81380;-70
2023/10/01 06:25:43;;;;;;;13.48;4.90;;;23.70;64.90;;;;;;7653047;22;80210;-67
2023/10/01 06:28:43;;;;;;;10.50;4.70;;;23.70;65.10;;;;;;7679809;22;80413;-66
2023/10/01 06:35:14;;;;;;;13.23;4.38;;;23.80;65.30;;;;;;7657967;22;83518;-68
2023/10/01 06:38:14;;;;;;;13.48;4.20;;;23.80;65.00;;;;;;7653142;22;80358;-69
2023/10/01 06:41:25;;;;;;;23.92;5.03;;;23.80;64.90;;;;;;7679138;22;80492;-72
2023/10/01 06:44:26;;;;;;;8.63;3.72;;;23.90;64.90;;;;;;7676845;22;80679;-65
2023/10/01 06:47:27;;;;;;;11.07;4.68;;;23.80;64.50;;;;;;7676454;22;80191;-69
2023/10/01 06:50:28;;;;;;;14.05;4.90;;;23.90;64.30;;;;;;7676774;22;81200;-58
2023/10/01 06:53:43;;;;;;;11.40;4.65;;;23.80;64.40;;;;;;7647734;22;81094;-64
2023/10/01 06:56:44;;;;;;;8.15;4.10;;;23.90;64.90;;;;;;7675111;22;81160;-69
2023/10/01 06:59:45;;;;;;;12.55;4.03;;;23.90;64.50;;;;;;7675236;22;80589;-71
2023/10/01 07:02:46;;;;;;;13.90;4.15;;;23.90;64.90;;;;;;7673394;22;80720;-63
2023/10/01 07:05:46;;;;;;;10.07;4.10;;;24.00;64.90;;;;;;7678652;22;81251;-71
2023/10/01 07:08:47;;;;;;;6.78;3.20;;;24.00;64.60;;;;;;7648130;22;81631;-66
2023/10/01 07:11:49;;;;;;;6.82;3.72;;;24.00;64.90;;;;;;7675397;22;79815;-47
2023/10/01 07:14:50;;;;;;;11.40;3.63;;;24.00;64.70;;;;;;7678302;22;80305;-50
2023/10/01 07:17:51;;;;;;;10.52;3.83;;;24.00;64.70;;;;;;7678966;22;80837;-47
2023/10/01 07:20:52;;;;;;;8.15;3.08;;;24.00;64.40;;;;;;7657267;22;80462;-48
2023/10/01 07:23:53;;;;;;;9.88;3.63;;;23.90;64.00;;;;;;7679225;22;80154;-50
2023/10/01 07:27:03;;;;;;;9.20;3.40;;;24.00;63.80;;;;;;7678533;22;80677;-49
2023/10/01 07:30:06;;;;;;;7.68;3.58;;;23.90;63.60;;;;;;7677657;22;80436;-53
2023/10/01 07:33:08;;;;;;;6.47;3.38;;;23.90;63.40;;;;;;7676288;22;80434;-51
2023/10/01 07:36:11;;;;;;;7.68;3.80;;;23.90;63.40;;;;;;7678298;22;81397;-52
2023/10/01 07:39:15;;;;;;;7.80;3.67;;;23.90;63.30;;;;;;7672624;22;80220;-53
2023/10/01 07:42:17;;;;;;;8.63;3.97;;;23.90;63.20;;;;;;7678822;22;80660;-54
2023/10/01 07:45:18;;;;;;;10.07;4.50;;;23.90;63.10;;;;;;7676651;22;80147;-57
2023/10/01 07:48:19;;;;;;;8.07;3.90;;;23.90;62.60;;;;;;7653917;22;81600;-50
2023/10/01 07:51:35;;;;;;;10.10;3.83;;;23.90;63.00;;;;;;7652268;22;81236;-52
2023/10/01 07:54:36;;;;;;;11.95;4.10;;;23.90;62.50;;;;;;7654329;22;81400;-50
2023/10/01 07:57:47;;;;;;;7.30;3.60;;;23.90;62.70;;;;;;7657903;22;81469;-51
2023/10/01 08:00:58;;;;;;;9.07;4.38;;;24.00;62.80;;;;;;7657035;22;81017;-50
2023/10/01 08:03:59;;;;;;;14.45;4.40;;;24.00;62.50;;;;;;7659002;22;84214;-48
2023/10/01 08:07:06;;;;;;;8.57;3.10;;;24.00;61.90;;;;;;7657625;22;80849;-58
2023/10/01 08:10:16;;;;;;;9.15;4.30;;;24.00;62.20;;;;;;7654928;22;83324;-57
2023/10/01 08:13:27;;;;;;;11.80;4.15;;;24.00;61.90;;;;;;7657297;22;81419;-57
2023/10/01 08:16:28;;;;;;;9.50;3.92;;;24.00;61.80;;;;;;7657461;22;80986;-54
2023/10/01 08:19:44;;;;;;;13.38;4.45;;;24.00;61.60;;;;;;7626798;22;81887;-53
2023/10/01 08:23:12;;;;;;;11.93;4.47;;;24.00;61.20;;;;;;7656667;22;80567;-56
2023/10/01 08:29:28;;;;;;;13.13;4.57;;;24.00;60.80;;;;;;7654174;22;85674;-55
2023/10/01 08:32:38;;;;;;;15.45;4.55;;;24.10;61.10;;;;;;7655701;22;81043;-52
2023/10/01 08:35:38;;;;;;;13.82;4.07;;;24.10;61.00;;;;;;7656719;22;80758;-55
2023/10/01 08:38:39;;;;;;;16.08;4.20;;;24.10;60.70;;;;;;7654815;22;81155;-57
2023/10/01 08:41:47;;;;;;;8.95;4.40;;;24.10;60.70;;;;;;7659574;22;81028;-58
2023/10/01 08:44:48;;;;;;;17.20;5.05;;;24.10;60.60;;;;;;7657799;22;81978;-60
2023/10/01 08:47:48;;;;;;;15.00;4.85;;;24.10;60.80;;;;;;7657118;22;81551;-61
2023/10/01 08:50:49;;;;;;;22.70;4.30;;;24.00;60.70;;;;;;7656262;22;81535;-60
2023/10/01 08:53:49;;;;;;;21.27;4.15;;;24.00;60.70;;;;;;7631036;22;83818;-62
2023/10/01 08:56:52;;;;;;;10.52;3.97;;;24.10;61.10;;;;;;7658313;22;81416;-62
2023/10/01 08:59:53;;;;;;;14.77;4.15;;;24.00;60.90;;;;;;7657112;22;80641;-64
2023/10/01 09:02:55;;;;;;;13.90;4.72;;;24.10;61.20;;;;;;7658067;22;81065;-60
2023/10/01 09:06:03;;;;;;;8.85;3.90;;;24.10;60.90;;;;;;7655127;22;80698;-61
2023/10/01 09:09:03;;;;;;;10.65;3.63;;;24.10;61.00;;;;;;7651652;22;80648;-63
2023/10/01 09:12:04;;;;;;;15.90;4.35;;;24.10;61.40;;;;;;7657490;22;82283;-63
2023/10/01 09:15:05;;;;;;;9.13;3.70;;;24.10;61.10;;;;;;7657020;22;82236;-62
2023/10/01 09:18:10;;;;;;;15.30;3.83;;;24.10;61.20;;;;;;7653873;22;80720;-61
2023/10/01 09:21:20;;;;;;;20.30;4.35;;;24.10;61.30;;;;;;7657649;22;80865;-57
2023/10/01 09:24:39;;;;;;;12.75;4.13;;;24.10;61.20;;;;;;7652227;22;81278;-57
2023/10/01 09:27:39;;;;;;;8.73;3.33;;;24.20;61.00;;;;;;7676076;22;81676;-57
2023/10/01 09:30:47;;;;;;;9.98;3.60;;;24.30;60.90;;;;;;7678742;22;81301;-54
2023/10/01 09:33:48;;;;;;;16.58;3.83;;;24.30;61.20;;;;;;7676037;22;80424;-55
2023/10/01 09:36:53;;;;;;;14.40;3.85;;;24.40;61.40;;;;;;7649951;22;80503;-55
2023/10/01 09:39:55;;;;;;;16.08;3.58;;;24.40;61.80;;;;;;7677655;22;82251;-51
2023/10/01 09:42:57;;;;;;;11.68;3.58;;;24.40;61.70;;;;;;7651434;22;81588;-50
2023/10/01 09:45:58;;;;;;;9.90;3.40;;;24.40;62.10;;;;;;7675821;22;80329;-55
2023/10/01 09:49:01;;;;;;;8.30;3.72;;;24.40;61.50;;;;;;7673983;22;87043;-53
2023/10/01 09:52:03;;;;;;;8.35;3.47;;;24.40;61.60;;;;;;7677944;22;80377;-55
2023/10/01 09:55:05;;;;;;;14.13;4.30;;;24.40;61.90;;;;;;7673615;22;82040;-52
2023/10/01 09:58:10;;;;;;;10.82;3.50;;;24.40;61.50;;;;;;7679365;22;80933;-54
2023/10/01 10:01:11;;;;;;;9.73;4.30;;;24.40;61.50;;;;;;7678957;22;80235;-55
2023/10/01 10:04:11;;;;;;;12.30;3.75;;;24.50;61.70;;;;;;7678896;22;80397;-53
2023/10/01 10:07:22;;;;;;;13.07;4.60;;;24.50;62.00;;;;;;7671115;22;80872;-54
2023/10/01 10:10:26;;;;;;;11.35;3.60;;;24.50;62.20;;;;;;7649436;22;80501;-56
2023/10/01 10:13:33;;;;;;;14.02;4.47;;;24.50;62.70;;;;;;7676487;22;80913;-57
2023/10/01 10:16:33;;;;;;;11.88;3.97;;;24.60;62.90;;;;;;7677893;22;80887;-60
2023/10/01 10:19:47;;;;;;;9.77;3.47;;;24.60;63.20;;;;;;7675369;22;80207;-61
2023/10/01 10:22:50;;;;;;;10.00;4.05;;;24.60;63.20;;;;;;7651306;22;81266;-58
2023/10/01 10:25:56;;;;;;;13.60;4.68;;;24.60;63.10;;;;;;7678161;22;80642;-58
2023/10/01 10:28:56;;;;;;;11.23;4.07;;;24.60;63.30;;;;;;7680349;22;81575;-60
2023/10/01 10:31:57;;;;;;;11.60;4.43;;;24.60;63.60;;;;;;7678687;22;81015;-54
2023/10/01 10:34:57;;;;;;;10.90;3.67;;;24.60;63.60;;;;;;7680009;22;81344;-56
2023/10/01 10:38:00;;;;;;;13.32;4.18;;;24.60;63.70;;;;;;7677508;22;81030;-50
2023/10/01 10:41:05;;;;;;;15.80;4.50;;;24.60;63.80;;;;;;7677276;22;80969;-52
2023/10/01 10:44:09;;;;;;;15.15;4.20;;;24.60;63.90;;;;;;7678536;22;81446;-52
2023/10/01 10:47:11;;;;;;;15.88;3.90;;;24.60;63.40;;;;;;7679031;22;85052;-55
2023/10/01 10:50:15;;;;;;;11.13;3.95;;;24.60;63.40;;;;;;7652792;22;80702;-54
2023/10/01 10:53:16;;;;;;;18.73;3.67;;;24.50;62.70;;;;;;7679860;22;81230;-51
2023/10/01 10:56:16;;;;;;;7.75;3.55;;;24.50;62.60;;;;;;7679806;22;80823;-53
2023/10/01 10:59:17;;;;;;;15.68;4.18;;;24.40;61.90;;;;;;7678394;22;80437;-52
2023/10/01 11:02:17;;;;;;;7.97;3.60;;;24.40;60.60;;;;;;7680287;22;80435;-53
2023/10/01 11:05:20;;;;;;;9.23;3.58;;;24.40;60.60;;;;;;7680630;22;80610;-51
2023/10/01 11:08:27;;;;;;;9.80;3.55;;;24.40;60.80;;;;;;7677450;22;80922;-52
2023/10/01 11:11:28;;;;;;;8.43;3.13;;;24.50;60.40;;;;;;7650939;22;83922;-52
2023/10/01 11:14:29;;;;;;;11.38;3.90;;;24.40;59.60;;;;;;7678027;22;80904;-54
2023/10/01 11:17:30;;;;;;;16.75;3.85;;;24.50;59.20;;;;;;7676436;22;80338;-54
2023/10/01 11:20:30;;;;;;;8.88;3.60;;;24.40;59.20;;;;;;7678527;22;81437;-50
2023/10/01 11:23:31;;;;;;;16.73;4.03;;;24.50;59.70;;;;;;7677358;22;80762;-54
2023/10/01 11:26:31;;;;;;;17.25;4.28;;;24.50;59.90;;;;;;7678552;22;80829;-51
2023/10/01 11:29:32;;;;;;;11.98;4.18;;;24.40;59.10;;;;;;7650189;22;80364;-54
2023/10/01 11:32:32;;;;;;;10.32;3.67;;;24.40;59.30;;;;;;7679318;22;80600;-54
2023/10/01 11:35:33;;;;;;;14.80;3.63;;;24.40;59.10;;;;;;7675150;22;80841;-51
2023/10/01 11:38:33;;;;;;;10.68;3.60;;;24.40;58.70;;;;;;7679048;22;80899;-54
2023/10/01 11:41:38;;;;;;;9.88;3.53;;;24.40;58.80;;;;;;7676259;22;80393;-53
2023/10/01 11:44:43;;;;;;;15.57;4.30;;;24.40;59.70;;;;;;7660427;22;84749;-52
2023/10/01 11:47:43;;;;;;;12.82;4.10;;;24.40;59.90;;;;;;7631964;22;83424;-50
2023/10/01 11:50:50;;;;;;;12.20;4.50;;;24.40;58.60;;;;;;7661773;22;86480;-54
2023/10/01 11:53:51;;;;;;;7.43;3.95;;;24.40;58.30;;;;;;7631357;22;81203;-53
2023/10/01 11:57:04;;;;;;;12.82;4.25;;;24.30;57.70;;;;;;7657401;22;80807;-51
2023/10/01 12:00:06;;;;;;;8.98;3.95;;;24.30;56.80;;;;;;7660202;22;80672;-52
2023/10/01 12:03:12;;;;;;;15.30;3.83;;;24.40;57.80;;;;;;7657803;22;80854;-54
2023/10/01 12:06:13;;;;;;;13.85;3.67;;;24.40;56.70;;;;;;7658216;22;80606;-52
2023/10/01 12:09:13;;;;;;;12.93;4.03;;;24.30;57.20;;;;;;7668820;22;80737;-51
2023/10/01 12:12:14;;;;;;;11.13;3.95;;;24.40;58.90;;;;;;7679337;22;80372;-54
2023/10/01 12:18:46;;;;;;;11.65;3.80;;;24.40;58.60;;;;;;7677238;22;80387;-51
2023/10/01 12:21:48;;;;;;;9.48;3.72;;;24.50;58.40;;;;;;7676826;22;79961;-58
2023/10/01 12:24:56;;;;;;;13.10;3.80;;;24.40;57.30;;;;;;7675564;22;81220;-59
2023/10/01 12:28:08;;;;;;;8.85;3.20;;;24.40;57.30;;;;;;7674463;22;81823;-59
2023/10/01 12:31:23;;;;;;;9.90;3.55;;;24.40;56.90;;;;;;7677736;22;80777;-57
2023/10/01 12:34:25;;;;;;;8.05;3.35;;;24.40;57.30;;;;;;7676268;22;80501;-57
2023/10/01 12:37:37;;;;;;;9.95;3.45;;;24.50;56.90;;;;;;7674604;22;81084;-57
2023/10/01 12:40:38;;;;;;;8.32;3.25;;;24.50;55.60;;;;;;7672258;22;80475;-54
2023/10/01 12:43:41;;;;;;;13.32;4.03;;;24.40;54.40;;;;;;7673749;22;80473;-56
2023/10/01 12:46:51;;;;;;;8.65;3.65;;;24.40;55.40;;;;;;7676445;22;82699;-54
2023/10/01 12:49:58;;;;;;;8.98;3.08;;;24.40;55.50;;;;;;7670284;22;80589;-50
2023/10/01 12:56:32;;;;;;;9.10;3.20;;;24.30;56.00;;;;;;7674919;22;84864;-53
2023/10/01 12:59:40;;;;;;;9.98;3.35;;;24.30;55.40;;;;;;7677157;22;80658;-65
2023/10/01 13:02:45;;;;;;;14.35;3.58;;;24.40;56.10;;;;;;7676008;22;81536;-66
2023/10/01 13:05:47;;;;;;;10.87;2.87;;;24.30;54.80;;;;;;7674805;22;81649;-71
2023/10/01 13:08:48;;;;;;;8.18;3.40;;;24.40;54.70;;;;;;7674513;22;80886;-66
2023/10/01 13:11:59;;;;;;;8.30;3.58;;;24.30;55.00;;;;;;7676534;22;80070;-64
2023/10/01 13:15:15;;;;;;;10.30;3.33;;;24.30;54.80;;;;;;7673765;22;81804;-54
2023/10/01 13:18:18;;;;;;;9.90;3.75;;;24.30;55.10;;;;;;7673937;22;81160;-60
2023/10/01 13:21:18;;;;;;;8.02;3.17;;;24.30;54.60;;;;;;7659479;22;81250;-60
2023/10/01 13:24:20;;;;;;;7.85;3.08;;;24.30;54.20;;;;;;7675565;22;81253;-60
2023/10/01 13:27:21;;;;;;;10.38;3.17;;;24.30;54.30;;;;;;7674161;22;80825;-59
2023/10/01 13:30:23;;;;;;;12.18;3.60;;;24.20;54.60;;;;;;7675564;22;81519;-59
2023/10/01 13:33:25;;;;;;;15.18;3.92;;;24.20;55.00;;;;;;7679114;22;80596;-59
2023/10/01 13:36:35;;;;;;;10.57;3.85;;;24.20;54.70;;;;;;7680337;22;80343;-53
2023/10/01 14:09:11;;;;;;;11.88;3.58;;;24.20;54.60;;;;;;7679929;22;80509;-53
2023/10/01 14:12:11;;;;;;;9.02;2.92;;;24.20;54.70;;;;;;7678841;22;81170;-52
2023/10/01 14:15:21;;;;;;;7.35;2.97;;;24.20;54.90;;;;;;7679346;22;80389;-49
2023/10/01 14:18:34;;;;;;;11.43;3.72;;;24.20;53.70;;;;;;7679826;22;81322;-55
2023/10/01 14:21:34;;;;;;;13.63;4.13;;;24.10;54.60;;;;;;7677390;22;80843;-53
2023/10/01 14:24:42;;;;;;;28.65;4.65;;;24.10;54.80;;;;;;7674109;22;81425;-53
2023/10/01 14:27:42;;;;;;;19.98;4.15;;;24.20;56.00;;;;;;7675747;22;80271;-49
2023/10/01 14:30:50;;;;;;;14.38;3.45;;;24.20;55.60;;;;;;7651027;22;80633;-55
2023/10/01 14:33:50;;;;;;;10.32;3.35;;;24.20;55.20;;;;;;7678671;22;81548;-56
2023/10/01 14:37:00;;;;;;;19.88;3.53;;;24.10;54.70;;;;;;7677816;22;80869;-54
2023/10/01 14:40:13;;;;;;;11.25;3.90;;;24.10;55.10;;;;;;7680004;22;80816;-57
2023/10/01 14:43:13;;;;;;;12.93;5.40;;;24.10;54.90;;;;;;7679887;22;80337;-55
2023/10/01 14:46:14;;;;;;;9.70;4.43;;;24.10;54.50;;;;;;7679515;22;80242;-56
2023/10/01 14:49:18;;;;;;;8.40;5.00;;;24.00;54.20;;;;;;7677758;22;80535;-66
2023/10/01 14:52:22;;;;;;;11.02;4.95;;;23.90;54.50;;;;;;7673293;22;80563;-65
2023/10/01 14:55:24;;;;;;;13.20;4.32;;;23.90;54.40;;;;;;7677257;22;80526;-64
2023/10/01 14:58:26;;;;;;;11.80;4.43;;;23.80;54.40;;;;;;7678638;22;80637;-64
2023/10/01 15:01:36;;;;;;;10.45;4.50;;;23.80;54.40;;;;;;7677799;22;80607;-63
2023/10/01 15:04:38;;;;;;;8.85;4.43;;;23.70;54.70;;;;;;7678246;22;80292;-64
2023/10/01 15:07:38;;;;;;;12.20;4.50;;;23.60;54.70;;;;;;7651492;22;83541;-51
2023/10/01 15:10:49;;;;;;;10.32;3.88;;;23.60;54.70;;;;;;7678686;22;80022;-51
2023/10/01 15:13:49;;;;;;;11.18;4.00;;;23.60;55.10;;;;;;7676629;22;80920;-50
2023/10/01 15:16:52;;;;;;;8.30;3.88;;;23.60;55.20;;;;;;7662822;22;80781;-49
2023/10/01 15:19:53;;;;;;;9.45;3.92;;;23.60;55.30;;;;;;7677784;22;80406;-51
2023/10/01 15:22:55;;;;;;;8.07;3.40;;;23.60;55.40;;;;;;7677557;22;80765;-55
2023/10/01 15:25:58;;;;;;;18.90;3.58;;;23.60;55.20;;;;;;7649328;22;83983;-51
2023/10/01 15:29:05;;;;;;;10.68;3.15;;;23.60;55.30;;;;;;7675559;22;80534;-50
2023/10/01 15:32:14;;;;;;;8.20;3.28;;;23.60;55.40;;;;;;7679205;22;80552;-53
2023/10/01 15:35:22;;;;;;;12.38;3.72;;;23.50;55.70;;;;;;7678574;22;84962;-51
2023/10/01 15:38:33;;;;;;;13.23;3.33;;;23.60;56.20;;;;;;7679436;22;80990;-49
2023/10/01 15:41:33;;;;;;;6.90;3.42;;;23.70;56.60;;;;;;7676352;22;81270;-54
2023/10/01 15:44:43;;;;;;;10.20;4.05;;;23.70;56.70;;;;;;7676186;22;80984;-52
2023/10/01 15:47:46;;;;;;;8.73;3.40;;;23.70;56.40;;;;;;7677753;22;79975;-53
2023/10/01 15:50:49;;;;;;;12.77;3.83;;;23.80;56.60;;;;;;7678523;22;80289;-51
2023/10/01 15:53:49;;;;;;;12.35;3.47;;;23.80;56.60;;;;;;7648181;22;83373;-52
2023/10/01 15:56:50;;;;;;;8.18;3.35;;;23.80;56.70;;;;;;7679563;22;81143;-52
2023/10/01 15:59:52;;;;;;;7.97;3.83;;;23.80;56.70;;;;;;7676210;22;80517;-56
2023/10/01 16:03:02;;;;;;;10.95;4.38;;;23.80;56.70;;;;;;7676586;22;80576;-54
2023/10/01 16:06:08;;;;;;;14.23;4.43;;;23.80;56.90;;;;;;7650546;22;80457;-64
2023/10/01 16:09:09;;;;;;;7.82;3.40;;;23.90;57.40;;;;;;7667107;22;81593;-73
2023/10/01 16:12:10;;;;;;;9.68;4.07;;;23.90;57.40;;;;;;7665012;22;80477;-68
2023/10/01 16:15:10;;;;;;;9.10;3.50;;;23.90;57.60;;;;;;7679243;22;81183;-65
2023/10/01 16:18:11;;;;;;;7.15;3.75;;;23.90;57.60;;;;;;7679102;22;80755;-66
2023/10/01 16:21:19;;;;;;;10.07;3.55;;;23.90;57.50;;;;;;7678716;22;80022;-53
2023/10/01 16:24:20;;;;;;;8.90;3.50;;;23.90;57.70;;;;;;7672466;22;81327;-53
2023/10/01 16:27:23;;;;;;;8.63;3.40;;;23.90;57.90;;;;;;7652506;22;83551;-52
2023/10/01 16:30:23;;;;;;;11.27;3.80;;;23.90;58.10;;;;;;7676920;22;81002;-52
2023/10/01 16:33:25;;;;;;;10.40;3.80;;;23.80;57.90;;;;;;7678871;22;81680;-51
2023/10/01 16:36:37;;;;;;;9.13;3.40;;;23.90;58.20;;;;;;7678896;22;80288;-49
2023/10/01 16:39:38;;;;;;;8.75;3.30;;;23.80;58.40;;;;;;7677507;22;80917;-49
2023/10/01 16:42:45;;;;;;;9.40;4.05;;;23.90;58.80;;;;;;7676924;22;80246;-50